AHY8238 UBBB-UGTB
Flight info
| Callsign | AHY8238 |
|---|---|
| Flight time | 0h 56m |
| Altitude | 34000 |
| Route | RASAM DCT BEKIR L850 ADEKI DCT LAMUS |
| Aircraft | A20N/M-SDE2E3FGHIRWXY/LB1 |
Departure
| Time | 2026-05-03 21:48 |
|---|---|
| Airport | Heydar Aliyev International Airport (UBBB) |
Arrival
| Time | 2026-05-03 22:44 |
|---|---|
| Airport | Tbilisi International Airport (UGTB) |
| Time | Latitude | Longitude | Altitude | Speed | Heading |
|---|---|---|---|---|---|
| 2026-05-03 21:31 | 40.46717 | 50.05101 | 13 ft | 0 kts | 143° |
| 2026-05-03 21:37 | 40.46726 | 50.05093 | 13 ft | 4 kts | 138° |
| 2026-05-03 21:37 | 40.46743 | 50.05072 | 13 ft | 2 kts | 138° |
| 2026-05-03 21:38 | 40.46762 | 50.05052 | 12 ft | 4 kts | 152° |
| 2026-05-03 21:38 | 40.46787 | 50.05039 | 13 ft | 4 kts | 174° |
| 2026-05-03 21:38 | 40.46806 | 50.05040 | 12 ft | 1 kts | 188° |
| 2026-05-03 21:38 | 40.46809 | 50.05040 | 15 ft | 0 kts | 188° |
| 2026-05-03 21:41 | 40.46791 | 50.05037 | 12 ft | 13 kts | 189° |
| 2026-05-03 21:41 | 40.46637 | 50.04952 | 12 ft | 17 kts | 206° |
| 2026-05-03 21:42 | 40.46625 | 50.04944 | 12 ft | 0 kts | 206° |
| 2026-05-03 21:44 | 40.46573 | 50.04905 | 12 ft | 24 kts | 221° |
| 2026-05-03 21:44 | 40.46549 | 50.04600 | 12 ft | 43 kts | 268° |
| 2026-05-03 21:44 | 40.46545 | 50.04471 | 12 ft | 0 kts | 267° |
| 2026-05-03 21:45 | 40.46545 | 50.04469 | 12 ft | 5 kts | 267° |
| 2026-05-03 21:45 | 40.46543 | 50.04209 | 12 ft | 34 kts | 280° |
| 2026-05-03 21:45 | 40.46742 | 50.04056 | 12 ft | 38 kts | 339° |
| 2026-05-03 21:45 | 40.46809 | 50.03857 | 11 ft | 18 kts | 256° |
| 2026-05-03 21:46 | 40.46647 | 50.03808 | 10 ft | 45 kts | 167° |
| 2026-05-03 21:46 | 40.46234 | 50.03938 | 12 ft | 72 kts | 166° |
| 2026-05-03 21:46 | 40.45785 | 50.04073 | 13 ft | 50 kts | 177° |
| 2026-05-03 21:46 | 40.45596 | 50.04100 | 14 ft | 16 kts | 108° |
| 2026-05-03 21:47 | 40.45641 | 50.04155 | 12 ft | 12 kts | 344° |
| 2026-05-03 21:47 | 40.45812 | 50.04069 | 13 ft | 52 kts | 346° |
| 2026-05-03 21:47 | 40.46445 | 50.03870 | 11 ft | 136 kts | 346° |
| 2026-05-03 21:47 | 40.47555 | 50.03530 | 242 ft | 182 kts | 348° |
| 2026-05-03 21:48 | 40.48843 | 50.03138 | 950 ft | 191 kts | 346° |
| 2026-05-03 21:48 | 40.50182 | 50.02713 | 1749 ft | 212 kts | 345° |
| 2026-05-03 21:48 | 40.51730 | 50.02216 | 2249 ft | 244 kts | 345° |
| 2026-05-03 21:48 | 40.53436 | 50.01676 | 3052 ft | 259 kts | 345° |
| 2026-05-03 21:49 | 40.55228 | 50.01113 | 3924 ft | 269 kts | 345° |
| 2026-05-03 21:49 | 40.57079 | 50.00531 | 4732 ft | 279 kts | 344° |
| 2026-05-03 21:49 | 40.58982 | 49.99879 | 5487 ft | 285 kts | 338° |
| 2026-05-03 21:49 | 40.60679 | 49.98588 | 6347 ft | 281 kts | 311° |
| 2026-05-03 21:50 | 40.61708 | 49.96492 | 7234 ft | 271 kts | 283° |
| 2026-05-03 21:50 | 40.61980 | 49.94077 | 8151 ft | 266 kts | 267° |
| 2026-05-03 21:50 | 40.61984 | 49.91639 | 9125 ft | 267 kts | 264° |
| 2026-05-03 21:50 | 40.61949 | 49.89190 | 10104 ft | 269 kts | 264° |
| 2026-05-03 21:51 | 40.61912 | 49.86652 | 10671 ft | 288 kts | 265° |
| 2026-05-03 21:51 | 40.61881 | 49.83926 | 11187 ft | 305 kts | 265° |
| 2026-05-03 21:51 | 40.61859 | 49.81095 | 11989 ft | 312 kts | 266° |
| 2026-05-03 21:51 | 40.61841 | 49.78219 | 12896 ft | 316 kts | 266° |
| 2026-05-03 21:52 | 40.61821 | 49.75311 | 13792 ft | 320 kts | 267° |
| 2026-05-03 21:52 | 40.61798 | 49.72363 | 14526 ft | 325 kts | 267° |
| 2026-05-03 21:52 | 40.61774 | 49.69371 | 15301 ft | 329 kts | 267° |
| 2026-05-03 21:52 | 40.61748 | 49.66340 | 16088 ft | 333 kts | 267° |
| 2026-05-03 21:53 | 40.61722 | 49.63278 | 16870 ft | 336 kts | 267° |
| 2026-05-03 21:53 | 40.61694 | 49.60184 | 17652 ft | 340 kts | 267° |
| 2026-05-03 21:53 | 40.61675 | 49.58122 | 18164 ft | 343 kts | 267° |
| 2026-05-03 21:53 | 40.61635 | 49.53883 | 19064 ft | 348 kts | 267° |
| 2026-05-03 21:54 | 40.61614 | 49.51766 | 19496 ft | 350 kts | 267° |
| 2026-05-03 21:54 | 40.61582 | 49.48545 | 20145 ft | 355 kts | 267° |
| 2026-05-03 21:54 | 40.61548 | 49.45280 | 20753 ft | 359 kts | 267° |
| 2026-05-03 21:54 | 40.61513 | 49.41979 | 21396 ft | 362 kts | 267° |
| 2026-05-03 21:55 | 40.61477 | 49.38652 | 22024 ft | 366 kts | 267° |
| 2026-05-03 21:55 | 40.61440 | 49.35285 | 22687 ft | 369 kts | 267° |
| 2026-05-03 21:55 | 40.61401 | 49.31891 | 23325 ft | 372 kts | 267° |
| 2026-05-03 21:55 | 40.61362 | 49.28475 | 23910 ft | 375 kts | 267° |
| 2026-05-03 21:56 | 40.61321 | 49.25035 | 24403 ft | 378 kts | 267° |
| 2026-05-03 21:56 | 40.61412 | 49.21555 | 24893 ft | 383 kts | 274° |
| 2026-05-03 21:56 | 40.61914 | 49.18085 | 25376 ft | 389 kts | 283° |
| 2026-05-03 21:56 | 40.62821 | 49.14705 | 25862 ft | 394 kts | 288° |
| 2026-05-03 21:57 | 40.63898 | 49.11366 | 26327 ft | 398 kts | 291° |
| 2026-05-03 21:57 | 40.65064 | 49.08040 | 26779 ft | 402 kts | 292° |
| 2026-05-03 21:57 | 40.66265 | 49.04712 | 27184 ft | 406 kts | 292° |
| 2026-05-03 21:57 | 40.67486 | 49.01333 | 27609 ft | 410 kts | 292° |
| 2026-05-03 21:58 | 40.68705 | 48.97925 | 28054 ft | 412 kts | 292° |
| 2026-05-03 21:58 | 40.69918 | 48.94491 | 28480 ft | 415 kts | 291° |
| 2026-05-03 21:58 | 40.71130 | 48.91023 | 28892 ft | 418 kts | 291° |
| 2026-05-03 21:58 | 40.72340 | 48.87533 | 29305 ft | 420 kts | 291° |
| 2026-05-03 21:59 | 40.73555 | 48.84013 | 29700 ft | 423 kts | 291° |
| 2026-05-03 21:59 | 40.74763 | 48.80506 | 29975 ft | 427 kts | 291° |
| 2026-05-03 21:59 | 40.77233 | 48.73316 | 29999 ft | 429 kts | 291° |
| 2026-05-03 22:00 | 40.79678 | 48.66197 | 30003 ft | 428 kts | 291° |
| 2026-05-03 22:00 | 40.82134 | 48.59027 | 29987 ft | 429 kts | 291° |
| 2026-05-03 22:01 | 40.84587 | 48.51849 | 29987 ft | 429 kts | 291° |
| 2026-05-03 22:01 | 40.87037 | 48.44653 | 29985 ft | 430 kts | 291° |
| 2026-05-03 22:02 | 40.89486 | 48.37446 | 29987 ft | 429 kts | 291° |
| 2026-05-03 22:02 | 40.91929 | 48.30243 | 29975 ft | 429 kts | 291° |
| 2026-05-03 22:03 | 40.94364 | 48.23039 | 29972 ft | 429 kts | 291° |
| 2026-05-03 22:03 | 40.96797 | 48.15821 | 29992 ft | 429 kts | 291° |
| 2026-05-03 22:04 | 40.99226 | 48.08598 | 29977 ft | 429 kts | 291° |
| 2026-05-03 22:04 | 41.01648 | 48.01380 | 29979 ft | 429 kts | 291° |
| 2026-05-03 22:05 | 41.04064 | 47.94160 | 29984 ft | 429 kts | 291° |
| 2026-05-03 22:05 | 41.06220 | 47.86801 | 29985 ft | 428 kts | 284° |
| 2026-05-03 22:06 | 41.07927 | 47.79248 | 29994 ft | 427 kts | 283° |
| 2026-05-03 22:06 | 41.09543 | 47.71659 | 29981 ft | 427 kts | 283° |
| 2026-05-03 22:07 | 41.11142 | 47.64072 | 29994 ft | 427 kts | 283° |
| 2026-05-03 22:07 | 41.12745 | 47.56480 | 29996 ft | 429 kts | 283° |
| 2026-05-03 22:08 | 41.14357 | 47.48852 | 30028 ft | 429 kts | 282° |
| 2026-05-03 22:08 | 41.15945 | 47.41331 | 30019 ft | 424 kts | 282° |
| 2026-05-03 22:09 | 41.17525 | 47.33806 | 30017 ft | 423 kts | 282° |
| 2026-05-03 22:10 | 41.19883 | 47.22521 | 30023 ft | 423 kts | 282° |
| 2026-05-03 22:10 | 41.21448 | 47.14991 | 30043 ft | 423 kts | 282° |
| 2026-05-03 22:11 | 41.23001 | 47.07510 | 29581 ft | 413 kts | 282° |
| 2026-05-03 22:11 | 41.23755 | 47.03875 | 29383 ft | 402 kts | 282° |
| 2026-05-03 22:11 | 41.24489 | 47.00336 | 29180 ft | 392 kts | 282° |
| 2026-05-03 22:11 | 41.25201 | 46.96891 | 28843 ft | 386 kts | 282° |
| 2026-05-03 22:12 | 41.25901 | 46.93485 | 28386 ft | 383 kts | 281° |
| 2026-05-03 22:12 | 41.26595 | 46.90094 | 27911 ft | 381 kts | 281° |
| 2026-05-03 22:12 | 41.27288 | 46.86705 | 27474 ft | 377 kts | 281° |
| 2026-05-03 22:12 | 41.27973 | 46.83352 | 27041 ft | 374 kts | 281° |
| 2026-05-03 22:13 | 41.28653 | 46.80023 | 26606 ft | 372 kts | 281° |
| 2026-05-03 22:13 | 41.29327 | 46.76718 | 26181 ft | 369 kts | 281° |
| 2026-05-03 22:13 | 41.29999 | 46.73437 | 25782 ft | 366 kts | 281° |
| 2026-05-03 22:13 | 41.30671 | 46.70187 | 25407 ft | 363 kts | 281° |
| 2026-05-03 22:14 | 41.31340 | 46.66961 | 24914 ft | 363 kts | 281° |
| 2026-05-03 22:14 | 41.32016 | 46.63691 | 24104 ft | 372 kts | 281° |
| 2026-05-03 22:14 | 41.32709 | 46.60324 | 23157 ft | 383 kts | 282° |
| 2026-05-03 22:14 | 41.33422 | 46.56849 | 22108 ft | 393 kts | 282° |
| 2026-05-03 22:15 | 41.34147 | 46.53327 | 21344 ft | 395 kts | 282° |
| 2026-05-03 22:15 | 41.34872 | 46.49823 | 20777 ft | 392 kts | 282° |
| 2026-05-03 22:15 | 41.35592 | 46.46337 | 20212 ft | 388 kts | 282° |
| 2026-05-03 22:15 | 41.36237 | 46.43207 | 19710 ft | 385 kts | 282° |
| 2026-05-03 22:16 | 41.36940 | 46.39788 | 19170 ft | 382 kts | 282° |
| 2026-05-03 22:16 | 41.37635 | 46.36396 | 18626 ft | 378 kts | 282° |
| 2026-05-03 22:16 | 41.38322 | 46.33029 | 18043 ft | 375 kts | 282° |
| 2026-05-03 22:16 | 41.38999 | 46.29706 | 17461 ft | 371 kts | 282° |
| 2026-05-03 22:17 | 41.39670 | 46.26407 | 16875 ft | 367 kts | 282° |
| 2026-05-03 22:17 | 41.40329 | 46.23161 | 16288 ft | 363 kts | 282° |
| 2026-05-03 22:17 | 41.40988 | 46.19913 | 15720 ft | 360 kts | 282° |
| 2026-05-03 22:17 | 41.41636 | 46.16709 | 15164 ft | 356 kts | 282° |
| 2026-05-03 22:18 | 41.42276 | 46.13541 | 14626 ft | 352 kts | 282° |
| 2026-05-03 22:18 | 41.42906 | 46.10420 | 14106 ft | 349 kts | 282° |
| 2026-05-03 22:18 | 41.43531 | 46.07315 | 13540 ft | 345 kts | 282° |
| 2026-05-03 22:18 | 41.44151 | 46.04233 | 12871 ft | 344 kts | 282° |
| 2026-05-03 22:19 | 41.44769 | 46.01152 | 12210 ft | 344 kts | 282° |
| 2026-05-03 22:19 | 41.45384 | 45.98082 | 11566 ft | 343 kts | 282° |
| 2026-05-03 22:19 | 41.45999 | 45.95010 | 10939 ft | 342 kts | 282° |
| 2026-05-03 22:19 | 41.46611 | 45.91951 | 10322 ft | 342 kts | 282° |
| 2026-05-03 22:20 | 41.47221 | 45.88896 | 9666 ft | 341 kts | 282° |
| 2026-05-03 22:20 | 41.47829 | 45.85838 | 8962 ft | 341 kts | 283° |
| 2026-05-03 22:20 | 41.48436 | 45.82788 | 8367 ft | 339 kts | 283° |
| 2026-05-03 22:20 | 41.49039 | 45.79752 | 8085 ft | 338 kts | 283° |
| 2026-05-03 22:21 | 41.49641 | 45.76722 | 8042 ft | 339 kts | 283° |
| 2026-05-03 22:21 | 41.50237 | 45.73712 | 7721 ft | 337 kts | 283° |
| 2026-05-03 22:21 | 41.50806 | 45.70832 | 7061 ft | 337 kts | 283° |
| 2026-05-03 22:21 | 41.51404 | 45.67800 | 6427 ft | 338 kts | 284° |
| 2026-05-03 22:22 | 41.52003 | 45.64765 | 6089 ft | 337 kts | 284° |
| 2026-05-03 22:22 | 41.52600 | 45.61736 | 6024 ft | 337 kts | 284° |
| 2026-05-03 22:22 | 41.53196 | 45.58711 | 6024 ft | 338 kts | 284° |
| 2026-05-03 22:22 | 41.53793 | 45.55677 | 6023 ft | 338 kts | 284° |
| 2026-05-03 22:23 | 41.54282 | 45.52649 | 6022 ft | 339 kts | 277° |
| 2026-05-03 22:23 | 41.54485 | 45.49525 | 6024 ft | 339 kts | 272° |
| 2026-05-03 22:23 | 41.54595 | 45.46380 | 6020 ft | 338 kts | 271° |
| 2026-05-03 22:23 | 41.54686 | 45.43195 | 6025 ft | 338 kts | 271° |
| 2026-05-03 22:24 | 41.54770 | 45.40065 | 6017 ft | 338 kts | 271° |
| 2026-05-03 22:24 | 41.54849 | 45.36962 | 6014 ft | 339 kts | 271° |
| 2026-05-03 22:24 | 41.54928 | 45.33826 | 6014 ft | 338 kts | 271° |
| 2026-05-03 22:24 | 41.55010 | 45.30689 | 6013 ft | 337 kts | 271° |
| 2026-05-03 22:25 | 41.55088 | 45.27560 | 6011 ft | 338 kts | 271° |
| 2026-05-03 22:25 | 41.55163 | 45.24427 | 6009 ft | 338 kts | 271° |
| 2026-05-03 22:25 | 41.55239 | 45.21297 | 6004 ft | 338 kts | 271° |
| 2026-05-03 22:25 | 41.55314 | 45.18164 | 6008 ft | 337 kts | 271° |
| 2026-05-03 22:26 | 41.55389 | 45.15030 | 6012 ft | 338 kts | 271° |
| 2026-05-03 22:26 | 41.55464 | 45.11900 | 6008 ft | 338 kts | 271° |
| 2026-05-03 22:26 | 41.55540 | 45.08754 | 6011 ft | 339 kts | 271° |
| 2026-05-03 22:26 | 41.55611 | 45.05609 | 6008 ft | 339 kts | 270° |
| 2026-05-03 22:27 | 41.55681 | 45.02470 | 6008 ft | 338 kts | 270° |
| 2026-05-03 22:27 | 41.55750 | 44.99333 | 5995 ft | 338 kts | 270° |
| 2026-05-03 22:27 | 41.55820 | 44.96193 | 5994 ft | 339 kts | 270° |
| 2026-05-03 22:27 | 41.55888 | 44.93043 | 5994 ft | 339 kts | 270° |
| 2026-05-03 22:28 | 41.55957 | 44.89899 | 5990 ft | 339 kts | 270° |
| 2026-05-03 22:28 | 41.56031 | 44.86743 | 5998 ft | 340 kts | 270° |
| 2026-05-03 22:28 | 41.56094 | 44.83677 | 5996 ft | 339 kts | 270° |
| 2026-05-03 22:28 | 41.56157 | 44.80523 | 5996 ft | 338 kts | 271° |
| 2026-05-03 22:29 | 41.56218 | 44.77473 | 5999 ft | 338 kts | 271° |
| 2026-05-03 22:29 | 41.56282 | 44.74282 | 6002 ft | 338 kts | 271° |
| 2026-05-03 22:29 | 41.56342 | 44.71257 | 6001 ft | 337 kts | 271° |
| 2026-05-03 22:29 | 41.56404 | 44.68084 | 6003 ft | 338 kts | 270° |
| 2026-05-03 22:30 | 41.56464 | 44.65035 | 6006 ft | 337 kts | 270° |
| 2026-05-03 22:30 | 41.56524 | 44.61836 | 6005 ft | 337 kts | 270° |
| 2026-05-03 22:30 | 41.56577 | 44.58800 | 6001 ft | 338 kts | 270° |
| 2026-05-03 22:30 | 41.56633 | 44.55607 | 6008 ft | 338 kts | 270° |
| 2026-05-03 22:31 | 41.56695 | 44.52423 | 6005 ft | 338 kts | 270° |
| 2026-05-03 22:31 | 41.56754 | 44.49326 | 6004 ft | 337 kts | 270° |
| 2026-05-03 22:31 | 41.56809 | 44.46271 | 6007 ft | 337 kts | 270° |
| 2026-05-03 22:31 | 41.56866 | 44.43137 | 6005 ft | 337 kts | 271° |
| 2026-05-03 22:32 | 41.56922 | 44.39946 | 6288 ft | 341 kts | 271° |
| 2026-05-03 22:32 | 41.57063 | 44.36826 | 7123 ft | 339 kts | 279° |
| 2026-05-03 22:32 | 41.57804 | 44.33878 | 7721 ft | 335 kts | 299° |
| 2026-05-03 22:32 | 41.59317 | 44.31523 | 7963 ft | 337 kts | 322° |
| 2026-05-03 22:33 | 41.61416 | 44.30152 | 8001 ft | 340 kts | 346° |
| 2026-05-03 22:33 | 41.63775 | 44.29993 | 8000 ft | 342 kts | 8° |
| 2026-05-03 22:33 | 41.65999 | 44.31055 | 8001 ft | 342 kts | 28° |
| 2026-05-03 22:33 | 41.68014 | 44.32762 | 8000 ft | 343 kts | 34° |
| 2026-05-03 22:34 | 41.69976 | 44.34577 | 7999 ft | 342 kts | 34° |
| 2026-05-03 22:34 | 41.71932 | 44.36394 | 8003 ft | 342 kts | 34° |
| 2026-05-03 22:34 | 41.73893 | 44.38202 | 7999 ft | 342 kts | 34° |
| 2026-05-03 22:34 | 41.75860 | 44.40004 | 7999 ft | 343 kts | 34° |
| 2026-05-03 22:35 | 41.77835 | 44.41807 | 8002 ft | 343 kts | 34° |
| 2026-05-03 22:35 | 41.79807 | 44.43605 | 8001 ft | 343 kts | 34° |
| 2026-05-03 22:35 | 41.81777 | 44.45401 | 8001 ft | 341 kts | 34° |
| 2026-05-03 22:35 | 41.83674 | 44.47306 | 8001 ft | 341 kts | 41° |
| 2026-05-03 22:36 | 41.85374 | 44.49493 | 7704 ft | 337 kts | 45° |
| 2026-05-03 22:36 | 41.86998 | 44.51748 | 7063 ft | 335 kts | 46° |
| 2026-05-03 22:36 | 41.88591 | 44.53993 | 6601 ft | 327 kts | 46° |
| 2026-05-03 22:36 | 41.90033 | 44.56263 | 6383 ft | 312 kts | 56° |
| 2026-05-03 22:37 | 41.90933 | 44.58834 | 6191 ft | 299 kts | 75° |
| 2026-05-03 22:37 | 41.91126 | 44.61533 | 6018 ft | 285 kts | 95° |
| 2026-05-03 22:37 | 41.90663 | 44.64048 | 5877 ft | 273 kts | 114° |
| 2026-05-03 22:37 | 41.89679 | 44.66155 | 5580 ft | 262 kts | 131° |
| 2026-05-03 22:38 | 41.88432 | 44.67885 | 5213 ft | 254 kts | 136° |
| 2026-05-03 22:38 | 41.87184 | 44.69456 | 5023 ft | 242 kts | 137° |
| 2026-05-03 22:38 | 41.85966 | 44.70976 | 5003 ft | 239 kts | 137° |
| 2026-05-03 22:38 | 41.84750 | 44.72503 | 5004 ft | 240 kts | 137° |
| 2026-05-03 22:39 | 41.83962 | 44.73498 | 5002 ft | 240 kts | 137° |
| 2026-05-03 22:39 | 41.82748 | 44.75034 | 5001 ft | 240 kts | 137° |
| 2026-05-03 22:39 | 41.81545 | 44.76560 | 5037 ft | 237 kts | 136° |
| 2026-05-03 22:39 | 41.80358 | 44.78034 | 4994 ft | 229 kts | 137° |
| 2026-05-03 22:40 | 41.79205 | 44.79470 | 4990 ft | 224 kts | 136° |
| 2026-05-03 22:40 | 41.78130 | 44.80842 | 5048 ft | 198 kts | 136° |
| 2026-05-03 22:40 | 41.77207 | 44.82029 | 4853 ft | 177 kts | 136° |
| 2026-05-03 22:40 | 41.76329 | 44.83144 | 4511 ft | 178 kts | 136° |
| 2026-05-03 22:41 | 41.75429 | 44.84288 | 4128 ft | 179 kts | 136° |
| 2026-05-03 22:41 | 41.74626 | 44.85312 | 3802 ft | 179 kts | 136° |
| 2026-05-03 22:41 | 41.73765 | 44.86405 | 3525 ft | 165 kts | 136° |
| 2026-05-03 22:41 | 41.72971 | 44.87412 | 3267 ft | 151 kts | 136° |
| 2026-05-03 22:42 | 41.72236 | 44.88346 | 3028 ft | 142 kts | 137° |
| 2026-05-03 22:42 | 41.71532 | 44.89242 | 2783 ft | 139 kts | 136° |
| 2026-05-03 22:42 | 41.70824 | 44.90139 | 2559 ft | 142 kts | 136° |
| 2026-05-03 22:42 | 41.70117 | 44.91038 | 2343 ft | 138 kts | 136° |
| 2026-05-03 22:43 | 41.69427 | 44.91914 | 2141 ft | 136 kts | 137° |
| 2026-05-03 22:43 | 41.68753 | 44.92770 | 1940 ft | 134 kts | 137° |
| 2026-05-03 22:43 | 41.68086 | 44.93616 | 1733 ft | 132 kts | 139° |
| 2026-05-03 22:43 | 41.67443 | 44.94430 | 1576 ft | 124 kts | 136° |
| 2026-05-03 22:44 | 41.66990 | 44.95018 | 1564 ft | 50 kts | 136° |
| 2026-05-03 22:44 | 41.66826 | 44.95227 | 1558 ft | 32 kts | 136° |
| 2026-05-03 22:44 | 41.66651 | 44.95446 | 1553 ft | 38 kts | 137° |
| 2026-05-03 22:44 | 41.66388 | 44.95773 | 1543 ft | 68 kts | 137° |